sensor_id;sensor_type;location;lat;lon;timestamp;P1;durP1;ratioP1;P2;durP2;ratioP2
39778;SDS011;25454;49.878;8.618;2022-10-31T00:02:26;11.77;;;7.57;;
39778;SDS011;25454;49.878;8.618;2022-10-31T00:07:27;11.77;;;8.53;;
39778;SDS011;25454;49.878;8.618;2022-10-31T00:12:28;17.63;;;8.90;;
39778;SDS011;25454;49.878;8.618;2022-10-31T00:17:31;13.47;;;8.33;;
39778;SDS011;25454;49.878;8.618;2022-10-31T00:22:37;13.17;;;8.57;;
39778;SDS011;25454;49.878;8.618;2022-10-31T00:27:37;13.97;;;9.17;;
39778;SDS011;25454;49.878;8.618;2022-10-31T00:32:38;9.60;;;7.63;;
39778;SDS011;25454;49.878;8.618;2022-10-31T00:37:38;16.23;;;8.20;;
39778;SDS011;25454;49.878;8.618;2022-10-31T00:42:42;13.73;;;8.67;;
39778;SDS011;25454;49.878;8.618;2022-10-31T00:47:43;16.93;;;9.60;;
39778;SDS011;25454;49.878;8.618;2022-10-31T00:52:43;15.30;;;8.53;;
39778;SDS011;25454;49.878;8.618;2022-10-31T00:57:47;11.40;;;8.17;;
39778;SDS011;25454;49.878;8.618;2022-10-31T01:02:47;11.60;;;7.67;;
39778;SDS011;25454;49.878;8.618;2022-10-31T01:07:48;14.37;;;8.73;;
39778;SDS011;25454;49.878;8.618;2022-10-31T01:12:49;14.00;;;8.07;;
39778;SDS011;25454;49.878;8.618;2022-10-31T01:17:49;12.43;;;8.27;;
39778;SDS011;25454;49.878;8.618;2022-10-31T01:22:50;14.97;;;8.23;;
39778;SDS011;25454;49.878;8.618;2022-10-31T01:27:51;11.87;;;8.07;;
39778;SDS011;25454;49.878;8.618;2022-10-31T01:32:54;12.50;;;7.77;;
39778;SDS011;25454;49.878;8.618;2022-10-31T01:37:57;10.80;;;8.10;;
39778;SDS011;25454;49.878;8.618;2022-10-31T01:42:58;12.30;;;8.40;;
39778;SDS011;25454;49.878;8.618;2022-10-31T01:47:58;14.43;;;9.17;;
39778;SDS011;25454;49.878;8.618;2022-10-31T01:52:59;14.40;;;8.33;;
39778;SDS011;25454;49.878;8.618;2022-10-31T01:58:03;15.87;;;8.50;;
39778;SDS011;25454;49.878;8.618;2022-10-31T02:03:09;12.87;;;9.00;;
39778;SDS011;25454;49.878;8.618;2022-10-31T02:08:16;12.10;;;8.63;;
39778;SDS011;25454;49.878;8.618;2022-10-31T02:13:34;17.43;;;9.43;;
39778;SDS011;25454;49.878;8.618;2022-10-31T02:18:35;12.63;;;8.93;;
39778;SDS011;25454;49.878;8.618;2022-10-31T02:34:08;10.93;;;7.80;;
39778;SDS011;25454;49.878;8.618;2022-10-31T02:39:26;10.07;;;7.27;;
39778;SDS011;25454;49.878;8.618;2022-10-31T02:44:36;10.93;;;6.80;;
39778;SDS011;25454;49.878;8.618;2022-10-31T02:49:59;11.60;;;7.63;;
39778;SDS011;25454;49.878;8.618;2022-10-31T03:00:29;11.67;;;7.30;;
39778;SDS011;25454;49.878;8.618;2022-10-31T03:10:56;10.50;;;7.33;;
39778;SDS011;25454;49.878;8.618;2022-10-31T03:16:14;11.17;;;7.17;;
39778;SDS011;25454;49.878;8.618;2022-10-31T03:21:30;14.93;;;7.37;;
39778;SDS011;25454;49.878;8.618;2022-10-31T03:26:34;11.50;;;7.50;;
39778;SDS011;25454;49.878;8.618;2022-10-31T03:31:40;10.23;;;7.20;;
39778;SDS011;25454;49.878;8.618;2022-10-31T03:36:48;8.60;;;6.87;;
39778;SDS011;25454;49.878;8.618;2022-10-31T03:41:59;10.47;;;7.07;;
39778;SDS011;25454;49.878;8.618;2022-10-31T03:47:05;11.20;;;7.20;;
39778;SDS011;25454;49.878;8.618;2022-10-31T03:52:10;11.67;;;6.60;;
39778;SDS011;25454;49.878;8.618;2022-10-31T03:57:24;10.57;;;7.23;;
39778;SDS011;25454;49.878;8.618;2022-10-31T04:02:33;12.93;;;7.60;;
39778;SDS011;25454;49.878;8.618;2022-10-31T04:07:41;12.00;;;7.50;;
39778;SDS011;25454;49.878;8.618;2022-10-31T04:12:47;14.93;;;7.27;;
39778;SDS011;25454;49.878;8.618;2022-10-31T04:17:52;14.33;;;7.43;;
39778;SDS011;25454;49.878;8.618;2022-10-31T04:22:55;14.43;;;7.20;;
39778;SDS011;25454;49.878;8.618;2022-10-31T04:27:56;11.30;;;7.37;;
39778;SDS011;25454;49.878;8.618;2022-10-31T04:32:56;12.33;;;8.13;;
39778;SDS011;25454;49.878;8.618;2022-10-31T04:37:57;13.27;;;7.77;;
39778;SDS011;25454;49.878;8.618;2022-10-31T04:42:57;12.83;;;6.80;;
39778;SDS011;25454;49.878;8.618;2022-10-31T04:47:58;10.50;;;7.00;;
39778;SDS011;25454;49.878;8.618;2022-10-31T04:52:59;12.47;;;7.17;;
39778;SDS011;25454;49.878;8.618;2022-10-31T04:57:59;11.53;;;7.37;;
39778;SDS011;25454;49.878;8.618;2022-10-31T05:03:00;9.10;;;6.27;;
39778;SDS011;25454;49.878;8.618;2022-10-31T05:08:00;9.77;;;6.80;;
39778;SDS011;25454;49.878;8.618;2022-10-31T05:13:02;14.63;;;6.70;;
39778;SDS011;25454;49.878;8.618;2022-10-31T05:18:04;9.17;;;6.10;;
39778;SDS011;25454;49.878;8.618;2022-10-31T05:23:04;10.87;;;6.93;;
39778;SDS011;25454;49.878;8.618;2022-10-31T05:28:06;12.63;;;7.07;;
39778;SDS011;25454;49.878;8.618;2022-10-31T05:33:07;11.50;;;6.97;;
39778;SDS011;25454;49.878;8.618;2022-10-31T05:38:07;9.77;;;6.83;;
39778;SDS011;25454;49.878;8.618;2022-10-31T05:43:08;12.60;;;7.17;;
39778;SDS011;25454;49.878;8.618;2022-10-31T05:48:08;10.17;;;7.60;;
39778;SDS011;25454;49.878;8.618;2022-10-31T05:53:09;18.70;;;8.97;;
39778;SDS011;25454;49.878;8.618;2022-10-31T05:58:10;13.40;;;7.57;;
39778;SDS011;25454;49.878;8.618;2022-10-31T06:03:11;17.57;;;8.00;;
39778;SDS011;25454;49.878;8.618;2022-10-31T06:08:12;17.93;;;12.57;;
39778;SDS011;25454;49.878;8.618;2022-10-31T06:13:12;17.93;;;10.40;;
39778;SDS011;25454;49.878;8.618;2022-10-31T06:18:13;13.23;;;8.90;;
39778;SDS011;25454;49.878;8.618;2022-10-31T06:23:13;15.43;;;9.23;;
39778;SDS011;25454;49.878;8.618;2022-10-31T06:28:14;14.90;;;9.80;;
39778;SDS011;25454;49.878;8.618;2022-10-31T06:33:14;13.60;;;8.97;;
39778;SDS011;25454;49.878;8.618;2022-10-31T06:38:15;15.17;;;8.20;;
39778;SDS011;25454;49.878;8.618;2022-10-31T06:43:15;15.50;;;8.47;;
39778;SDS011;25454;49.878;8.618;2022-10-31T06:48:16;12.90;;;8.20;;
39778;SDS011;25454;49.878;8.618;2022-10-31T06:53:17;13.13;;;7.13;;
39778;SDS011;25454;49.878;8.618;2022-10-31T06:58:17;15.10;;;7.23;;
39778;SDS011;25454;49.878;8.618;2022-10-31T07:03:18;15.13;;;7.20;;
39778;SDS011;25454;49.878;8.618;2022-10-31T07:08:20;12.73;;;7.57;;
39778;SDS011;25454;49.878;8.618;2022-10-31T07:13:20;14.23;;;6.77;;
39778;SDS011;25454;49.878;8.618;2022-10-31T07:18:27;10.57;;;6.40;;
39778;SDS011;25454;49.878;8.618;2022-10-31T07:23:28;10.10;;;6.03;;
39778;SDS011;25454;49.878;8.618;2022-10-31T07:28:28;14.43;;;6.23;;
39778;SDS011;25454;49.878;8.618;2022-10-31T07:33:29;13.10;;;5.87;;
39778;SDS011;25454;49.878;8.618;2022-10-31T07:38:29;9.90;;;5.80;;
39778;SDS011;25454;49.878;8.618;2022-10-31T07:43:30;17.93;;;6.57;;
39778;SDS011;25454;49.878;8.618;2022-10-31T07:48:30;16.93;;;6.47;;
39778;SDS011;25454;49.878;8.618;2022-10-31T07:53:31;13.00;;;6.30;;
39778;SDS011;25454;49.878;8.618;2022-10-31T07:58:31;15.57;;;5.87;;
39778;SDS011;25454;49.878;8.618;2022-10-31T08:03:32;15.13;;;5.93;;
39778;SDS011;25454;49.878;8.618;2022-10-31T08:08:32;13.20;;;5.77;;
39778;SDS011;25454;49.878;8.618;2022-10-31T08:13:33;14.13;;;5.40;;
39778;SDS011;25454;49.878;8.618;2022-10-31T08:18:34;8.97;;;5.77;;
39778;SDS011;25454;49.878;8.618;2022-10-31T08:23:37;13.30;;;5.73;;
39778;SDS011;25454;49.878;8.618;2022-10-31T08:28:37;11.50;;;5.00;;
39778;SDS011;25454;49.878;8.618;2022-10-31T08:33:38;13.73;;;5.50;;
39778;SDS011;25454;49.878;8.618;2022-10-31T08:38:39;14.23;;;4.90;;
39778;SDS011;25454;49.878;8.618;2022-10-31T08:43:39;9.77;;;4.97;;
39778;SDS011;25454;49.878;8.618;2022-10-31T08:48:40;11.27;;;5.60;;
39778;SDS011;25454;49.878;8.618;2022-10-31T08:53:41;12.57;;;5.27;;
39778;SDS011;25454;49.878;8.618;2022-10-31T08:58:41;10.53;;;4.87;;
39778;SDS011;25454;49.878;8.618;2022-10-31T09:03:42;11.60;;;4.60;;
39778;SDS011;25454;49.878;8.618;2022-10-31T09:08:42;7.50;;;4.90;;
39778;SDS011;25454;49.878;8.618;2022-10-31T09:13:43;15.50;;;5.90;;
39778;SDS011;25454;49.878;8.618;2022-10-31T09:18:44;12.93;;;5.87;;
39778;SDS011;25454;49.878;8.618;2022-10-31T09:23:44;11.50;;;5.13;;
39778;SDS011;25454;49.878;8.618;2022-10-31T09:28:45;10.93;;;4.97;;
39778;SDS011;25454;49.878;8.618;2022-10-31T09:33:46;9.60;;;5.17;;
39778;SDS011;25454;49.878;8.618;2022-10-31T09:38:46;8.70;;;4.80;;
39778;SDS011;25454;49.878;8.618;2022-10-31T09:43:53;12.30;;;5.20;;
39778;SDS011;25454;49.878;8.618;2022-10-31T09:49:28;12.57;;;5.07;;
39778;SDS011;25454;49.878;8.618;2022-10-31T09:55:05;15.60;;;5.57;;
39778;SDS011;25454;49.878;8.618;2022-10-31T10:00:16;10.47;;;4.90;;
39778;SDS011;25454;49.878;8.618;2022-10-31T10:05:21;17.07;;;5.27;;
39778;SDS011;25454;49.878;8.618;2022-10-31T10:26:56;8.80;;;5.10;;
39778;SDS011;25454;49.878;8.618;2022-10-31T10:32:09;12.07;;;5.20;;
39778;SDS011;25454;49.878;8.618;2022-10-31T10:37:32;16.03;;;5.17;;
39778;SDS011;25454;49.878;8.618;2022-10-31T10:42:38;21.50;;;5.33;;
39778;SDS011;25454;49.878;8.618;2022-10-31T10:48:02;13.23;;;5.10;;
39778;SDS011;25454;49.878;8.618;2022-10-31T10:58:39;12.83;;;5.17;;
39778;SDS011;25454;49.878;8.618;2022-10-31T11:03:42;10.30;;;5.50;;
39778;SDS011;25454;49.878;8.618;2022-10-31T11:08:43;9.13;;;4.50;;
39778;SDS011;25454;49.878;8.618;2022-10-31T11:13:44;12.93;;;4.97;;
39778;SDS011;25454;49.878;8.618;2022-10-31T11:18:47;8.13;;;4.37;;
39778;SDS011;25454;49.878;8.618;2022-10-31T11:23:48;9.93;;;4.20;;
39778;SDS011;25454;49.878;8.618;2022-10-31T11:28:57;13.13;;;4.67;;
39778;SDS011;25454;49.878;8.618;2022-10-31T11:34:03;9.93;;;4.60;;
39778;SDS011;25454;49.878;8.618;2022-10-31T11:39:13;12.63;;;5.50;;
39778;SDS011;25454;49.878;8.618;2022-10-31T11:44:23;11.50;;;5.00;;
39778;SDS011;25454;49.878;8.618;2022-10-31T11:49:37;11.63;;;4.97;;
39778;SDS011;25454;49.878;8.618;2022-10-31T11:54:52;11.23;;;4.87;;
39778;SDS011;25454;49.878;8.618;2022-10-31T11:59:57;12.17;;;4.10;;
39778;SDS011;25454;49.878;8.618;2022-10-31T12:05:10;11.83;;;4.23;;
39778;SDS011;25454;49.878;8.618;2022-10-31T12:10:21;9.20;;;4.20;;
39778;SDS011;25454;49.878;8.618;2022-10-31T12:15:30;12.87;;;4.60;;
39778;SDS011;25454;49.878;8.618;2022-10-31T12:36:26;8.73;;;4.00;;
39778;SDS011;25454;49.878;8.618;2022-10-31T12:41:46;10.87;;;4.47;;
39778;SDS011;25454;49.878;8.618;2022-10-31T12:47:31;8.83;;;4.50;;
39778;SDS011;25454;49.878;8.618;2022-10-31T12:52:56;10.93;;;4.57;;
39778;SDS011;25454;49.878;8.618;2022-10-31T12:58:25;10.33;;;4.90;;
39778;SDS011;25454;49.878;8.618;2022-10-31T13:08:59;16.00;;;4.53;;
39778;SDS011;25454;49.878;8.618;2022-10-31T13:14:14;7.77;;;4.10;;
39778;SDS011;25454;49.878;8.618;2022-10-31T13:19:34;7.40;;;3.93;;
39778;SDS011;25454;49.878;8.618;2022-10-31T13:24:53;10.10;;;4.80;;
39778;SDS011;25454;49.878;8.618;2022-10-31T13:30:16;13.80;;;4.40;;
39778;SDS011;25454;49.878;8.618;2022-10-31T13:35:27;8.50;;;4.60;;
39778;SDS011;25454;49.878;8.618;2022-10-31T13:40:41;6.57;;;3.83;;
39778;SDS011;25454;49.878;8.618;2022-10-31T13:45:50;9.47;;;4.00;;
39778;SDS011;25454;49.878;8.618;2022-10-31T13:50:57;11.30;;;5.10;;
39778;SDS011;25454;49.878;8.618;2022-10-31T14:06:10;10.83;;;4.80;;
39778;SDS011;25454;49.878;8.618;2022-10-31T14:11:16;11.17;;;4.47;;
39778;SDS011;25454;49.878;8.618;2022-10-31T14:16:25;14.63;;;4.60;;
39778;SDS011;25454;49.878;8.618;2022-10-31T14:21:29;11.83;;;5.07;;
39778;SDS011;25454;49.878;8.618;2022-10-31T14:26:36;9.20;;;4.20;;
39778;SDS011;25454;49.878;8.618;2022-10-31T14:31:37;13.87;;;5.27;;
39778;SDS011;25454;49.878;8.618;2022-10-31T14:47:55;8.73;;;4.00;;
39778;SDS011;25454;49.878;8.618;2022-10-31T14:53:18;11.63;;;4.33;;
39778;SDS011;25454;49.878;8.618;2022-10-31T14:58:36;12.60;;;4.53;;
39778;SDS011;25454;49.878;8.618;2022-10-31T15:03:42;9.53;;;4.10;;
39778;SDS011;25454;49.878;8.618;2022-10-31T15:13:54;9.93;;;4.53;;
39778;SDS011;25454;49.878;8.618;2022-10-31T15:18:58;9.03;;;4.37;;
39778;SDS011;25454;49.878;8.618;2022-10-31T15:24:01;10.13;;;4.70;;
39778;SDS011;25454;49.878;8.618;2022-10-31T15:29:03;10.80;;;6.20;;
39778;SDS011;25454;49.878;8.618;2022-10-31T15:34:06;7.83;;;5.30;;
39778;SDS011;25454;49.878;8.618;2022-10-31T15:39:16;10.10;;;5.10;;
39778;SDS011;25454;49.878;8.618;2022-10-31T15:44:35;9.67;;;5.43;;
39778;SDS011;25454;49.878;8.618;2022-10-31T15:49:41;15.17;;;6.87;;
39778;SDS011;25454;49.878;8.618;2022-10-31T15:54:51;12.03;;;6.00;;
39778;SDS011;25454;49.878;8.618;2022-10-31T15:59:55;12.13;;;5.93;;
39778;SDS011;25454;49.878;8.618;2022-10-31T16:04:57;9.70;;;5.97;;
39778;SDS011;25454;49.878;8.618;2022-10-31T16:10:00;13.13;;;6.80;;
39778;SDS011;25454;49.878;8.618;2022-10-31T16:15:03;11.77;;;6.80;;
39778;SDS011;25454;49.878;8.618;2022-10-31T16:20:05;10.63;;;6.03;;
39778;SDS011;25454;49.878;8.618;2022-10-31T16:25:17;16.03;;;6.33;;
39778;SDS011;25454;49.878;8.618;2022-10-31T16:30:30;11.40;;;5.50;;
39778;SDS011;25454;49.878;8.618;2022-10-31T16:35:38;14.63;;;5.33;;
39778;SDS011;25454;49.878;8.618;2022-10-31T16:40:39;10.77;;;5.07;;
39778;SDS011;25454;49.878;8.618;2022-10-31T16:45:44;12.23;;;5.47;;
39778;SDS011;25454;49.878;8.618;2022-10-31T16:50:46;11.57;;;5.10;;
39778;SDS011;25454;49.878;8.618;2022-10-31T16:55:53;14.27;;;6.03;;
39778;SDS011;25454;49.878;8.618;2022-10-31T17:00:56;18.23;;;7.47;;
39778;SDS011;25454;49.878;8.618;2022-10-31T17:05:57;15.83;;;7.00;;
39778;SDS011;25454;49.878;8.618;2022-10-31T17:10:57;11.73;;;6.30;;
39778;SDS011;25454;49.878;8.618;2022-10-31T17:15:59;10.80;;;6.33;;
39778;SDS011;25454;49.878;8.618;2022-10-31T17:21:02;10.30;;;5.60;;
39778;SDS011;25454;49.878;8.618;2022-10-31T17:26:05;10.67;;;5.73;;
39778;SDS011;25454;49.878;8.618;2022-10-31T17:31:17;13.83;;;6.00;;
39778;SDS011;25454;49.878;8.618;2022-10-31T17:36:20;13.87;;;6.33;;
39778;SDS011;25454;49.878;8.618;2022-10-31T17:41:21;7.27;;;5.40;;
39778;SDS011;25454;49.878;8.618;2022-10-31T17:46:26;12.17;;;6.20;;
39778;SDS011;25454;49.878;8.618;2022-10-31T17:51:27;10.70;;;6.63;;
39778;SDS011;25454;49.878;8.618;2022-10-31T17:56:28;8.73;;;5.40;;
39778;SDS011;25454;49.878;8.618;2022-10-31T18:01:28;9.70;;;5.80;;
39778;SDS011;25454;49.878;8.618;2022-10-31T18:06:29;10.03;;;7.63;;
39778;SDS011;25454;49.878;8.618;2022-10-31T18:11:30;9.43;;;6.77;;
39778;SDS011;25454;49.878;8.618;2022-10-31T18:16:31;12.07;;;7.27;;
39778;SDS011;25454;49.878;8.618;2022-10-31T18:21:31;11.17;;;5.80;;
39778;SDS011;25454;49.878;8.618;2022-10-31T18:26:32;10.50;;;6.03;;
39778;SDS011;25454;49.878;8.618;2022-10-31T18:31:33;10.57;;;5.60;;
39778;SDS011;25454;49.878;8.618;2022-10-31T18:36:33;7.50;;;5.57;;
39778;SDS011;25454;49.878;8.618;2022-10-31T18:41:34;7.83;;;5.27;;
39778;SDS011;25454;49.878;8.618;2022-10-31T18:46:35;13.10;;;6.83;;
39778;SDS011;25454;49.878;8.618;2022-10-31T18:51:36;15.80;;;6.83;;
39778;SDS011;25454;49.878;8.618;2022-10-31T18:56:36;11.67;;;6.13;;
39778;SDS011;25454;49.878;8.618;2022-10-31T19:01:37;9.27;;;6.67;;
39778;SDS011;25454;49.878;8.618;2022-10-31T19:06:38;14.23;;;8.00;;
39778;SDS011;25454;49.878;8.618;2022-10-31T19:11:39;16.03;;;8.23;;
39778;SDS011;25454;49.878;8.618;2022-10-31T19:16:39;15.33;;;9.07;;
39778;SDS011;25454;49.878;8.618;2022-10-31T19:21:40;17.87;;;9.47;;
39778;SDS011;25454;49.878;8.618;2022-10-31T19:26:44;14.17;;;9.40;;
39778;SDS011;25454;49.878;8.618;2022-10-31T19:31:44;15.10;;;9.93;;
39778;SDS011;25454;49.878;8.618;2022-10-31T19:36:45;18.80;;;10.23;;
39778;SDS011;25454;49.878;8.618;2022-10-31T19:41:49;11.83;;;9.23;;
39778;SDS011;25454;49.878;8.618;2022-10-31T19:46:49;13.00;;;9.67;;
39778;SDS011;25454;49.878;8.618;2022-10-31T19:51:50;12.87;;;10.70;;
39778;SDS011;25454;49.878;8.618;2022-10-31T19:56:51;20.10;;;11.37;;
39778;SDS011;25454;49.878;8.618;2022-10-31T20:01:51;14.57;;;10.97;;
39778;SDS011;25454;49.878;8.618;2022-10-31T20:06:52;18.60;;;11.83;;
39778;SDS011;25454;49.878;8.618;2022-10-31T20:11:52;15.07;;;11.23;;
39778;SDS011;25454;49.878;8.618;2022-10-31T20:16:53;15.60;;;10.27;;
39778;SDS011;25454;49.878;8.618;2022-10-31T20:21:53;18.90;;;12.73;;
39778;SDS011;25454;49.878;8.618;2022-10-31T20:26:54;24.20;;;13.33;;
39778;SDS011;25454;49.878;8.618;2022-10-31T20:31:54;17.93;;;11.53;;
39778;SDS011;25454;49.878;8.618;2022-10-31T20:36:56;16.87;;;10.90;;
39778;SDS011;25454;49.878;8.618;2022-10-31T20:41:56;19.73;;;12.47;;
39778;SDS011;25454;49.878;8.618;2022-10-31T20:46:57;19.73;;;11.83;;
39778;SDS011;25454;49.878;8.618;2022-10-31T20:51:58;17.70;;;12.60;;
39778;SDS011;25454;49.878;8.618;2022-10-31T20:56:58;19.53;;;13.50;;
39778;SDS011;25454;49.878;8.618;2022-10-31T21:01:59;17.77;;;12.53;;
39778;SDS011;25454;49.878;8.618;2022-10-31T21:06:59;18.93;;;11.87;;
39778;SDS011;25454;49.878;8.618;2022-10-31T21:12:00;17.03;;;11.67;;
39778;SDS011;25454;49.878;8.618;2022-10-31T21:17:00;17.37;;;11.53;;
39778;SDS011;25454;49.878;8.618;2022-10-31T21:22:02;15.83;;;10.97;;
39778;SDS011;25454;49.878;8.618;2022-10-31T21:27:03;17.87;;;11.77;;
39778;SDS011;25454;49.878;8.618;2022-10-31T21:32:03;20.90;;;13.03;;
39778;SDS011;25454;49.878;8.618;2022-10-31T21:37:04;21.67;;;12.13;;
39778;SDS011;25454;49.878;8.618;2022-10-31T21:42:04;15.87;;;12.13;;
39778;SDS011;25454;49.878;8.618;2022-10-31T21:47:05;17.00;;;11.80;;
39778;SDS011;25454;49.878;8.618;2022-10-31T21:52:06;21.83;;;14.70;;
39778;SDS011;25454;49.878;8.618;2022-10-31T21:57:06;21.53;;;14.07;;
39778;SDS011;25454;49.878;8.618;2022-10-31T22:02:07;21.30;;;13.67;;
39778;SDS011;25454;49.878;8.618;2022-10-31T22:07:08;21.77;;;14.03;;
39778;SDS011;25454;49.878;8.618;2022-10-31T22:12:09;28.70;;;14.33;;
39778;SDS011;25454;49.878;8.618;2022-10-31T22:17:09;27.23;;;14.30;;
39778;SDS011;25454;49.878;8.618;2022-10-31T22:22:10;22.43;;;13.13;;
39778;SDS011;25454;49.878;8.618;2022-10-31T22:27:12;16.33;;;11.50;;
39778;SDS011;25454;49.878;8.618;2022-10-31T22:32:12;15.93;;;10.80;;
39778;SDS011;25454;49.878;8.618;2022-10-31T22:37:13;15.67;;;11.37;;
39778;SDS011;25454;49.878;8.618;2022-10-31T22:42:16;16.60;;;10.50;;
39778;SDS011;25454;49.878;8.618;2022-10-31T22:47:16;14.30;;;9.97;;
39778;SDS011;25454;49.878;8.618;2022-10-31T22:52:17;13.87;;;10.03;;
39778;SDS011;25454;49.878;8.618;2022-10-31T22:57:17;12.13;;;10.53;;
39778;SDS011;25454;49.878;8.618;2022-10-31T23:02:18;17.90;;;10.83;;
39778;SDS011;25454;49.878;8.618;2022-10-31T23:07:19;16.30;;;10.53;;
39778;SDS011;25454;49.878;8.618;2022-10-31T23:12:19;14.87;;;10.87;;
39778;SDS011;25454;49.878;8.618;2022-10-31T23:17:39;15.60;;;10.50;;
39778;SDS011;25454;49.878;8.618;2022-10-31T23:22:39;11.90;;;9.20;;
39778;SDS011;25454;49.878;8.618;2022-10-31T23:27:40;15.73;;;9.90;;
39778;SDS011;25454;49.878;8.618;2022-10-31T23:32:43;14.10;;;9.77;;
39778;SDS011;25454;49.878;8.618;2022-10-31T23:37:44;13.83;;;9.87;;
39778;SDS011;25454;49.878;8.618;2022-10-31T23:42:44;13.80;;;9.80;;
39778;SDS011;25454;49.878;8.618;2022-10-31T23:47:45;11.53;;;9.77;;
39778;SDS011;25454;49.878;8.618;2022-10-31T23:52:45;13.00;;;9.57;;
39778;SDS011;25454;49.878;8.618;2022-10-31T23:57:46;16.20;;;10.83;;
